sensor_id;sensor_type;location;lat;lon;timestamp;P1;durP1;ratioP1;P2;durP2;ratioP2
30380;SDS011;17169;50.966;11.038;2023-01-08T00:02:37;5.20;;;3.08;;
30380;SDS011;17169;50.966;11.038;2023-01-08T00:05:39;4.53;;;2.63;;
30380;SDS011;17169;50.966;11.038;2023-01-08T00:08:42;4.55;;;2.72;;
30380;SDS011;17169;50.966;11.038;2023-01-08T00:11:46;5.32;;;2.95;;
30380;SDS011;17169;50.966;11.038;2023-01-08T00:14:49;6.67;;;2.53;;
30380;SDS011;17169;50.966;11.038;2023-01-08T00:17:51;5.68;;;3.00;;
30380;SDS011;17169;50.966;11.038;2023-01-08T00:20:54;5.70;;;2.60;;
30380;SDS011;17169;50.966;11.038;2023-01-08T00:23:56;4.20;;;2.60;;
30380;SDS011;17169;50.966;11.038;2023-01-08T00:27:00;5.53;;;2.90;;
30380;SDS011;17169;50.966;11.038;2023-01-08T00:30:02;4.32;;;2.50;;
30380;SDS011;17169;50.966;11.038;2023-01-08T00:33:05;7.97;;;2.70;;
30380;SDS011;17169;50.966;11.038;2023-01-08T00:36:08;4.15;;;2.65;;
30380;SDS011;17169;50.966;11.038;2023-01-08T00:39:12;4.63;;;2.67;;
30380;SDS011;17169;50.966;11.038;2023-01-08T00:42:16;4.20;;;2.72;;
30380;SDS011;17169;50.966;11.038;2023-01-08T00:45:18;4.53;;;2.80;;
30380;SDS011;17169;50.966;11.038;2023-01-08T00:48:21;4.78;;;3.00;;
30380;SDS011;17169;50.966;11.038;2023-01-08T00:51:24;4.82;;;3.03;;
30380;SDS011;17169;50.966;11.038;2023-01-08T00:54:26;5.70;;;3.22;;
30380;SDS011;17169;50.966;11.038;2023-01-08T00:57:32;6.72;;;3.05;;
30380;SDS011;17169;50.966;11.038;2023-01-08T01:00:35;5.65;;;2.95;;
30380;SDS011;17169;50.966;11.038;2023-01-08T01:03:38;4.30;;;2.88;;
30380;SDS011;17169;50.966;11.038;2023-01-08T01:06:40;4.53;;;2.83;;
30380;SDS011;17169;50.966;11.038;2023-01-08T01:09:43;5.35;;;2.80;;
30380;SDS011;17169;50.966;11.038;2023-01-08T01:12:46;4.78;;;2.70;;
30380;SDS011;17169;50.966;11.038;2023-01-08T01:15:55;4.22;;;2.88;;
30380;SDS011;17169;50.966;11.038;2023-01-08T01:18:58;4.68;;;2.95;;
30380;SDS011;17169;50.966;11.038;2023-01-08T01:22:00;5.15;;;3.53;;
30380;SDS011;17169;50.966;11.038;2023-01-08T01:25:03;7.63;;;3.60;;
30380;SDS011;17169;50.966;11.038;2023-01-08T01:28:08;4.75;;;3.13;;
30380;SDS011;17169;50.966;11.038;2023-01-08T01:31:10;9.73;;;3.53;;
30380;SDS011;17169;50.966;11.038;2023-01-08T01:34:13;5.70;;;3.42;;
30380;SDS011;17169;50.966;11.038;2023-01-08T01:37:16;5.30;;;3.42;;
30380;SDS011;17169;50.966;11.038;2023-01-08T01:40:18;6.10;;;3.30;;
30380;SDS011;17169;50.966;11.038;2023-01-08T01:43:38;6.85;;;3.92;;
30380;SDS011;17169;50.966;11.038;2023-01-08T01:46:41;5.80;;;3.60;;
30380;SDS011;17169;50.966;11.038;2023-01-08T01:49:46;7.22;;;3.72;;
30380;SDS011;17169;50.966;11.038;2023-01-08T01:52:54;5.97;;;3.30;;
30380;SDS011;17169;50.966;11.038;2023-01-08T01:56:02;5.45;;;3.75;;
30380;SDS011;17169;50.966;11.038;2023-01-08T01:59:07;5.28;;;3.42;;
30380;SDS011;17169;50.966;11.038;2023-01-08T02:02:09;4.57;;;3.20;;
30380;SDS011;17169;50.966;11.038;2023-01-08T02:05:12;5.00;;;3.05;;
30380;SDS011;17169;50.966;11.038;2023-01-08T02:08:16;5.75;;;3.30;;
30380;SDS011;17169;50.966;11.038;2023-01-08T02:11:25;8.25;;;3.92;;
30380;SDS011;17169;50.966;11.038;2023-01-08T02:14:37;6.65;;;3.20;;
30380;SDS011;17169;50.966;11.038;2023-01-08T02:17:47;5.32;;;3.30;;
30380;SDS011;17169;50.966;11.038;2023-01-08T02:20:55;5.55;;;3.58;;
30380;SDS011;17169;50.966;11.038;2023-01-08T02:24:02;6.90;;;3.45;;
30380;SDS011;17169;50.966;11.038;2023-01-08T02:27:14;8.02;;;3.05;;
30380;SDS011;17169;50.966;11.038;2023-01-08T02:30:19;5.32;;;3.38;;
30380;SDS011;17169;50.966;11.038;2023-01-08T02:33:21;6.53;;;3.20;;
30380;SDS011;17169;50.966;11.038;2023-01-08T02:36:29;5.78;;;3.35;;
30380;SDS011;17169;50.966;11.038;2023-01-08T02:39:57;7.43;;;3.03;;
30380;SDS011;17169;50.966;11.038;2023-01-08T02:43:08;5.20;;;3.53;;
30380;SDS011;17169;50.966;11.038;2023-01-08T02:46:15;9.35;;;3.88;;
30380;SDS011;17169;50.966;11.038;2023-01-08T02:49:20;5.38;;;3.40;;
30380;SDS011;17169;50.966;11.038;2023-01-08T02:52:28;11.25;;;5.57;;
30380;SDS011;17169;50.966;11.038;2023-01-08T02:55:34;5.18;;;3.38;;
30380;SDS011;17169;50.966;11.038;2023-01-08T02:58:40;6.38;;;3.42;;
30380;SDS011;17169;50.966;11.038;2023-01-08T03:01:44;5.78;;;3.65;;
30380;SDS011;17169;50.966;11.038;2023-01-08T03:04:48;6.82;;;3.60;;
30380;SDS011;17169;50.966;11.038;2023-01-08T03:07:53;9.55;;;3.90;;
30380;SDS011;17169;50.966;11.038;2023-01-08T03:11:00;6.07;;;3.53;;
30380;SDS011;17169;50.966;11.038;2023-01-08T03:14:08;6.75;;;3.80;;
30380;SDS011;17169;50.966;11.038;2023-01-08T03:17:17;5.75;;;3.20;;
30380;SDS011;17169;50.966;11.038;2023-01-08T03:20:22;6.18;;;3.65;;
30380;SDS011;17169;50.966;11.038;2023-01-08T03:23:25;5.07;;;3.67;;
30380;SDS011;17169;50.966;11.038;2023-01-08T03:26:32;5.53;;;3.28;;
30380;SDS011;17169;50.966;11.038;2023-01-08T03:29:41;5.38;;;3.70;;
30380;SDS011;17169;50.966;11.038;2023-01-08T03:32:44;6.82;;;4.07;;
30380;SDS011;17169;50.966;11.038;2023-01-08T03:35:49;6.15;;;3.78;;
30380;SDS011;17169;50.966;11.038;2023-01-08T03:38:55;4.45;;;3.30;;
30380;SDS011;17169;50.966;11.038;2023-01-08T03:42:01;8.82;;;3.80;;
30380;SDS011;17169;50.966;11.038;2023-01-08T03:45:10;5.88;;;3.33;;
30380;SDS011;17169;50.966;11.038;2023-01-08T03:48:13;5.38;;;3.40;;
30380;SDS011;17169;50.966;11.038;2023-01-08T03:51:15;7.43;;;3.75;;
30380;SDS011;17169;50.966;11.038;2023-01-08T03:54:21;5.18;;;3.47;;
30380;SDS011;17169;50.966;11.038;2023-01-08T03:57:26;5.20;;;3.83;;
30380;SDS011;17169;50.966;11.038;2023-01-08T04:00:30;7.10;;;3.50;;
30380;SDS011;17169;50.966;11.038;2023-01-08T04:03:32;7.13;;;3.75;;
30380;SDS011;17169;50.966;11.038;2023-01-08T04:06:34;6.03;;;3.45;;
30380;SDS011;17169;50.966;11.038;2023-01-08T04:09:37;7.35;;;3.50;;
30380;SDS011;17169;50.966;11.038;2023-01-08T04:12:40;5.13;;;3.47;;
30380;SDS011;17169;50.966;11.038;2023-01-08T04:15:47;5.43;;;3.65;;
30380;SDS011;17169;50.966;11.038;2023-01-08T04:18:50;6.82;;;3.75;;
30380;SDS011;17169;50.966;11.038;2023-01-08T04:21:52;5.15;;;3.00;;
30380;SDS011;17169;50.966;11.038;2023-01-08T04:24:54;5.55;;;3.33;;
30380;SDS011;17169;50.966;11.038;2023-01-08T04:27:57;7.22;;;4.00;;
30380;SDS011;17169;50.966;11.038;2023-01-08T04:31:00;6.25;;;3.13;;
30380;SDS011;17169;50.966;11.038;2023-01-08T04:34:06;4.90;;;3.20;;
30380;SDS011;17169;50.966;11.038;2023-01-08T04:37:10;6.45;;;3.38;;
30380;SDS011;17169;50.966;11.038;2023-01-08T04:40:12;7.70;;;3.78;;
30380;SDS011;17169;50.966;11.038;2023-01-08T04:43:15;4.57;;;3.10;;
30380;SDS011;17169;50.966;11.038;2023-01-08T04:46:18;5.07;;;3.25;;
30380;SDS011;17169;50.966;11.038;2023-01-08T04:49:21;5.93;;;3.30;;
30380;SDS011;17169;50.966;11.038;2023-01-08T04:52:23;5.82;;;3.25;;
30380;SDS011;17169;50.966;11.038;2023-01-08T04:55:25;5.07;;;3.28;;
30380;SDS011;17169;50.966;11.038;2023-01-08T04:58:28;6.32;;;3.45;;
30380;SDS011;17169;50.966;11.038;2023-01-08T05:01:32;6.20;;;3.53;;
30380;SDS011;17169;50.966;11.038;2023-01-08T05:04:34;5.43;;;3.58;;
30380;SDS011;17169;50.966;11.038;2023-01-08T05:07:36;5.75;;;3.55;;
30380;SDS011;17169;50.966;11.038;2023-01-08T05:10:39;6.88;;;3.75;;
30380;SDS011;17169;50.966;11.038;2023-01-08T05:13:41;7.78;;;3.60;;
30380;SDS011;17169;50.966;11.038;2023-01-08T05:16:45;5.03;;;3.08;;
30380;SDS011;17169;50.966;11.038;2023-01-08T05:19:48;5.10;;;3.22;;
30380;SDS011;17169;50.966;11.038;2023-01-08T05:22:50;6.35;;;3.95;;
30380;SDS011;17169;50.966;11.038;2023-01-08T05:25:55;7.05;;;3.65;;
30380;SDS011;17169;50.966;11.038;2023-01-08T05:28:58;6.22;;;3.50;;
30380;SDS011;17169;50.966;11.038;2023-01-08T05:32:02;5.45;;;3.20;;
30380;SDS011;17169;50.966;11.038;2023-01-08T05:35:04;7.00;;;3.85;;
30380;SDS011;17169;50.966;11.038;2023-01-08T05:38:07;7.43;;;4.47;;
30380;SDS011;17169;50.966;11.038;2023-01-08T05:41:10;6.88;;;3.55;;
30380;SDS011;17169;50.966;11.038;2023-01-08T05:44:12;7.15;;;3.50;;
30380;SDS011;17169;50.966;11.038;2023-01-08T05:47:16;7.55;;;3.60;;
30380;SDS011;17169;50.966;11.038;2023-01-08T05:50:18;5.50;;;3.65;;
30380;SDS011;17169;50.966;11.038;2023-01-08T05:53:21;5.60;;;3.50;;
30380;SDS011;17169;50.966;11.038;2023-01-08T05:56:23;8.05;;;3.53;;
30380;SDS011;17169;50.966;11.038;2023-01-08T05:59:26;16.65;;;9.45;;
30380;SDS011;17169;50.966;11.038;2023-01-08T06:02:29;5.10;;;3.40;;
30380;SDS011;17169;50.966;11.038;2023-01-08T06:05:32;5.72;;;3.30;;
30380;SDS011;17169;50.966;11.038;2023-01-08T06:08:35;4.90;;;3.28;;
30380;SDS011;17169;50.966;11.038;2023-01-08T06:11:37;6.50;;;3.80;;
30380;SDS011;17169;50.966;11.038;2023-01-08T06:14:40;5.07;;;3.60;;
30380;SDS011;17169;50.966;11.038;2023-01-08T06:17:44;5.38;;;3.30;;
30380;SDS011;17169;50.966;11.038;2023-01-08T06:20:46;8.18;;;3.67;;
30380;SDS011;17169;50.966;11.038;2023-01-08T06:23:48;6.10;;;3.90;;
30380;SDS011;17169;50.966;11.038;2023-01-08T06:26:51;8.93;;;4.60;;
30380;SDS011;17169;50.966;11.038;2023-01-08T06:29:53;7.00;;;4.32;;
30380;SDS011;17169;50.966;11.038;2023-01-08T06:32:57;6.97;;;4.13;;
30380;SDS011;17169;50.966;11.038;2023-01-08T06:36:00;6.10;;;3.80;;
30380;SDS011;17169;50.966;11.038;2023-01-08T06:39:04;6.68;;;4.00;;
30380;SDS011;17169;50.966;11.038;2023-01-08T06:42:06;5.22;;;3.78;;
30380;SDS011;17169;50.966;11.038;2023-01-08T06:45:09;6.97;;;4.07;;
30380;SDS011;17169;50.966;11.038;2023-01-08T06:48:13;7.63;;;4.20;;
30380;SDS011;17169;50.966;11.038;2023-01-08T06:51:15;7.63;;;3.65;;
30380;SDS011;17169;50.966;11.038;2023-01-08T06:54:18;9.48;;;4.32;;
30380;SDS011;17169;50.966;11.038;2023-01-08T06:57:20;5.63;;;3.67;;
30380;SDS011;17169;50.966;11.038;2023-01-08T07:00:23;7.78;;;4.05;;
30380;SDS011;17169;50.966;11.038;2023-01-08T07:03:28;6.15;;;3.88;;
30380;SDS011;17169;50.966;11.038;2023-01-08T07:06:30;6.22;;;3.90;;
30380;SDS011;17169;50.966;11.038;2023-01-08T07:09:32;9.18;;;3.85;;
30380;SDS011;17169;50.966;11.038;2023-01-08T07:12:35;8.93;;;4.53;;
30380;SDS011;17169;50.966;11.038;2023-01-08T07:15:37;8.23;;;4.13;;
30380;SDS011;17169;50.966;11.038;2023-01-08T07:18:41;32.97;;;19.50;;
30380;SDS011;17169;50.966;11.038;2023-01-08T07:21:44;29.45;;;17.10;;
30380;SDS011;17169;50.966;11.038;2023-01-08T07:24:46;15.85;;;7.35;;
30380;SDS011;17169;50.966;11.038;2023-01-08T07:27:49;13.20;;;8.55;;
30380;SDS011;17169;50.966;11.038;2023-01-08T07:30:51;8.48;;;6.35;;
30380;SDS011;17169;50.966;11.038;2023-01-08T07:33:55;14.93;;;8.57;;
30380;SDS011;17169;50.966;11.038;2023-01-08T07:36:57;9.07;;;4.72;;
30380;SDS011;17169;50.966;11.038;2023-01-08T07:39:59;7.30;;;4.30;;
30380;SDS011;17169;50.966;11.038;2023-01-08T07:43:02;8.43;;;4.65;;
30380;SDS011;17169;50.966;11.038;2023-01-08T07:46:06;5.95;;;3.92;;
30380;SDS011;17169;50.966;11.038;2023-01-08T07:49:10;8.73;;;4.00;;
30380;SDS011;17169;50.966;11.038;2023-01-08T07:52:12;6.55;;;4.47;;
30380;SDS011;17169;50.966;11.038;2023-01-08T07:55:15;7.82;;;3.90;;
30380;SDS011;17169;50.966;11.038;2023-01-08T07:58:17;6.22;;;3.83;;
30380;SDS011;17169;50.966;11.038;2023-01-08T08:01:19;7.50;;;4.45;;
30380;SDS011;17169;50.966;11.038;2023-01-08T08:04:23;7.28;;;4.18;;
30380;SDS011;17169;50.966;11.038;2023-01-08T08:07:25;8.18;;;4.20;;
30380;SDS011;17169;50.966;11.038;2023-01-08T08:10:30;5.00;;;3.40;;
30380;SDS011;17169;50.966;11.038;2023-01-08T08:13:33;5.18;;;3.55;;
30380;SDS011;17169;50.966;11.038;2023-01-08T08:16:35;9.77;;;4.07;;
30380;SDS011;17169;50.966;11.038;2023-01-08T08:19:39;5.50;;;3.45;;
30380;SDS011;17169;50.966;11.038;2023-01-08T08:22:43;5.40;;;3.10;;
30380;SDS011;17169;50.966;11.038;2023-01-08T08:25:45;5.88;;;3.25;;
30380;SDS011;17169;50.966;11.038;2023-01-08T08:28:48;6.82;;;3.50;;
30380;SDS011;17169;50.966;11.038;2023-01-08T08:31:51;5.18;;;3.20;;
30380;SDS011;17169;50.966;11.038;2023-01-08T08:34:54;5.10;;;3.15;;
30380;SDS011;17169;50.966;11.038;2023-01-08T08:37:57;4.70;;;2.88;;
30380;SDS011;17169;50.966;11.038;2023-01-08T08:41:00;5.50;;;2.58;;
30380;SDS011;17169;50.966;11.038;2023-01-08T08:44:02;4.22;;;2.53;;
30380;SDS011;17169;50.966;11.038;2023-01-08T08:47:05;4.20;;;2.03;;
30380;SDS011;17169;50.966;11.038;2023-01-08T08:50:10;5.03;;;2.40;;
30380;SDS011;17169;50.966;11.038;2023-01-08T08:53:12;4.07;;;2.10;;
30380;SDS011;17169;50.966;11.038;2023-01-08T08:56:14;4.13;;;2.60;;
30380;SDS011;17169;50.966;11.038;2023-01-08T08:59:17;4.05;;;3.20;;
30380;SDS011;17169;50.966;11.038;2023-01-08T09:02:19;5.72;;;3.28;;
30380;SDS011;17169;50.966;11.038;2023-01-08T09:05:23;6.47;;;3.85;;
30380;SDS011;17169;50.966;11.038;2023-01-08T09:08:25;6.38;;;3.67;;
30380;SDS011;17169;50.966;11.038;2023-01-08T09:11:28;6.32;;;3.35;;
30380;SDS011;17169;50.966;11.038;2023-01-08T09:14:30;6.93;;;4.03;;
30380;SDS011;17169;50.966;11.038;2023-01-08T09:17:32;6.43;;;3.78;;
30380;SDS011;17169;50.966;11.038;2023-01-08T09:20:37;5.75;;;3.30;;
30380;SDS011;17169;50.966;11.038;2023-01-08T09:23:40;5.90;;;3.47;;
30380;SDS011;17169;50.966;11.038;2023-01-08T09:26:42;5.32;;;3.53;;
30380;SDS011;17169;50.966;11.038;2023-01-08T09:29:44;4.07;;;3.03;;
30380;SDS011;17169;50.966;11.038;2023-01-08T09:32:47;6.63;;;3.10;;
30380;SDS011;17169;50.966;11.038;2023-01-08T09:35:50;4.75;;;3.13;;
30380;SDS011;17169;50.966;11.038;2023-01-08T09:38:53;4.88;;;2.47;;
30380;SDS011;17169;50.966;11.038;2023-01-08T09:41:55;4.85;;;2.70;;
30380;SDS011;17169;50.966;11.038;2023-01-08T09:44:59;5.60;;;2.67;;
30380;SDS011;17169;50.966;11.038;2023-01-08T09:48:04;3.53;;;2.20;;
30380;SDS011;17169;50.966;11.038;2023-01-08T09:51:14;3.75;;;2.20;;
30380;SDS011;17169;50.966;11.038;2023-01-08T09:54:18;4.07;;;2.53;;
30380;SDS011;17169;50.966;11.038;2023-01-08T09:57:24;4.28;;;2.40;;
30380;SDS011;17169;50.966;11.038;2023-01-08T10:00:28;2.78;;;1.85;;
30380;SDS011;17169;50.966;11.038;2023-01-08T10:03:37;3.63;;;1.63;;
30380;SDS011;17169;50.966;11.038;2023-01-08T10:06:45;3.33;;;1.63;;
30380;SDS011;17169;50.966;11.038;2023-01-08T10:09:51;1.85;;;1.15;;
30380;SDS011;17169;50.966;11.038;2023-01-08T10:12:54;2.67;;;1.73;;
30380;SDS011;17169;50.966;11.038;2023-01-08T10:15:57;2.08;;;1.40;;
30380;SDS011;17169;50.966;11.038;2023-01-08T10:19:01;2.88;;;1.67;;
30380;SDS011;17169;50.966;11.038;2023-01-08T10:22:09;2.67;;;1.60;;
30380;SDS011;17169;50.966;11.038;2023-01-08T10:25:14;3.38;;;1.90;;
30380;SDS011;17169;50.966;11.038;2023-01-08T10:28:19;3.60;;;2.00;;
30380;SDS011;17169;50.966;11.038;2023-01-08T10:31:23;3.40;;;1.80;;
30380;SDS011;17169;50.966;11.038;2023-01-08T10:34:27;3.13;;;1.65;;
30380;SDS011;17169;50.966;11.038;2023-01-08T10:37:37;3.53;;;1.90;;
30380;SDS011;17169;50.966;11.038;2023-01-08T10:40:44;3.92;;;2.30;;
30380;SDS011;17169;50.966;11.038;2023-01-08T10:43:50;4.05;;;2.03;;
30380;SDS011;17169;50.966;11.038;2023-01-08T10:46:56;2.40;;;1.52;;
30380;SDS011;17169;50.966;11.038;2023-01-08T10:50:02;3.17;;;1.67;;
30380;SDS011;17169;50.966;11.038;2023-01-08T10:53:20;3.90;;;2.20;;
30380;SDS011;17169;50.966;11.038;2023-01-08T10:56:24;4.03;;;2.22;;
30380;SDS011;17169;50.966;11.038;2023-01-08T10:59:28;3.20;;;1.70;;
30380;SDS011;17169;50.966;11.038;2023-01-08T11:02:32;2.50;;;1.30;;
30380;SDS011;17169;50.966;11.038;2023-01-08T11:05:37;1.77;;;1.40;;
30380;SDS011;17169;50.966;11.038;2023-01-08T11:08:48;2.17;;;1.50;;
30380;SDS011;17169;50.966;11.038;2023-01-08T11:11:52;2.20;;;1.35;;
30380;SDS011;17169;50.966;11.038;2023-01-08T11:14:54;1.63;;;1.20;;
30380;SDS011;17169;50.966;11.038;2023-01-08T11:18:04;3.47;;;1.80;;
30380;SDS011;17169;50.966;11.038;2023-01-08T11:21:15;2.25;;;1.38;;
30380;SDS011;17169;50.966;11.038;2023-01-08T11:24:22;3.55;;;1.90;;
30380;SDS011;17169;50.966;11.038;2023-01-08T11:27:28;5.93;;;2.78;;
30380;SDS011;17169;50.966;11.038;2023-01-08T11:30:33;3.45;;;2.15;;
30380;SDS011;17169;50.966;11.038;2023-01-08T11:33:39;2.60;;;1.50;;
30380;SDS011;17169;50.966;11.038;2023-01-08T11:36:46;1.95;;;1.20;;
30380;SDS011;17169;50.966;11.038;2023-01-08T11:39:53;1.50;;;1.10;;
30380;SDS011;17169;50.966;11.038;2023-01-08T11:43:03;1.93;;;1.20;;
30380;SDS011;17169;50.966;11.038;2023-01-08T11:46:26;1.88;;;1.00;;
30380;SDS011;17169;50.966;11.038;2023-01-08T11:49:44;1.88;;;1.00;;
30380;SDS011;17169;50.966;11.038;2023-01-08T11:53:01;2.10;;;1.00;;
30380;SDS011;17169;50.966;11.038;2023-01-08T11:56:19;3.58;;;1.10;;
30380;SDS011;17169;50.966;11.038;2023-01-08T11:59:31;1.83;;;1.10;;
30380;SDS011;17169;50.966;11.038;2023-01-08T12:02:49;3.97;;;1.02;;
30380;SDS011;17169;50.966;11.038;2023-01-08T12:05:55;2.22;;;1.20;;
30380;SDS011;17169;50.966;11.038;2023-01-08T12:09:09;2.35;;;1.10;;
30380;SDS011;17169;50.966;11.038;2023-01-08T12:12:25;3.92;;;1.45;;
30380;SDS011;17169;50.966;11.038;2023-01-08T12:15:42;1.92;;;1.17;;
30380;SDS011;17169;50.966;11.038;2023-01-08T12:18:58;2.17;;;1.38;;
30380;SDS011;17169;50.966;11.038;2023-01-08T12:22:17;2.63;;;1.40;;
30380;SDS011;17169;50.966;11.038;2023-01-08T12:25:30;2.30;;;1.17;;
30380;SDS011;17169;50.966;11.038;2023-01-08T12:28:54;3.03;;;1.00;;
30380;SDS011;17169;50.966;11.038;2023-01-08T12:32:18;2.97;;;1.60;;
30380;SDS011;17169;50.966;11.038;2023-01-08T12:35:29;2.67;;;1.20;;
30380;SDS011;17169;50.966;11.038;2023-01-08T12:38:38;3.95;;;2.03;;
30380;SDS011;17169;50.966;11.038;2023-01-08T12:41:44;2.45;;;1.00;;
30380;SDS011;17169;50.966;11.038;2023-01-08T12:44:51;1.10;;;0.80;;
30380;SDS011;17169;50.966;11.038;2023-01-08T12:47:56;1.40;;;1.00;;
30380;SDS011;17169;50.966;11.038;2023-01-08T12:51:02;3.20;;;1.63;;
30380;SDS011;17169;50.966;11.038;2023-01-08T12:54:09;3.47;;;1.50;;
30380;SDS011;17169;50.966;11.038;2023-01-08T12:57:20;5.00;;;2.20;;
30380;SDS011;17169;50.966;11.038;2023-01-08T13:00:32;2.78;;;1.58;;
30380;SDS011;17169;50.966;11.038;2023-01-08T13:03:40;2.13;;;1.20;;
30380;SDS011;17169;50.966;11.038;2023-01-08T13:06:49;3.88;;;1.08;;
30380;SDS011;17169;50.966;11.038;2023-01-08T13:09:55;1.38;;;0.98;;
30380;SDS011;17169;50.966;11.038;2023-01-08T13:12:58;1.95;;;1.13;;
30380;SDS011;17169;50.966;11.038;2023-01-08T13:16:07;1.90;;;1.10;;
30380;SDS011;17169;50.966;11.038;2023-01-08T13:19:23;4.13;;;1.80;;
30380;SDS011;17169;50.966;11.038;2023-01-08T13:22:27;2.65;;;1.20;;
30380;SDS011;17169;50.966;11.038;2023-01-08T13:25:32;2.30;;;1.30;;
30380;SDS011;17169;50.966;11.038;2023-01-08T13:28:40;1.02;;;0.82;;
30380;SDS011;17169;50.966;11.038;2023-01-08T13:31:46;1.42;;;0.90;;
30380;SDS011;17169;50.966;11.038;2023-01-08T13:34:48;1.48;;;0.85;;
30380;SDS011;17169;50.966;11.038;2023-01-08T13:38:11;1.40;;;0.98;;
30380;SDS011;17169;50.966;11.038;2023-01-08T13:41:24;2.25;;;0.90;;
30380;SDS011;17169;50.966;11.038;2023-01-08T13:44:28;4.10;;;1.00;;
30380;SDS011;17169;50.966;11.038;2023-01-08T13:47:35;1.75;;;0.93;;
30380;SDS011;17169;50.966;11.038;2023-01-08T13:50:43;2.88;;;1.30;;
30380;SDS011;17169;50.966;11.038;2023-01-08T13:53:47;2.28;;;1.15;;
30380;SDS011;17169;50.966;11.038;2023-01-08T13:56:51;1.40;;;0.90;;
30380;SDS011;17169;50.966;11.038;2023-01-08T13:59:56;2.15;;;1.20;;
30380;SDS011;17169;50.966;11.038;2023-01-08T14:03:01;1.67;;;0.85;;
30380;SDS011;17169;50.966;11.038;2023-01-08T14:06:04;4.78;;;1.25;;
30380;SDS011;17169;50.966;11.038;2023-01-08T14:09:13;1.70;;;1.10;;
30380;SDS011;17169;50.966;11.038;2023-01-08T14:12:22;2.00;;;1.20;;
30380;SDS011;17169;50.966;11.038;2023-01-08T14:15:26;2.67;;;1.33;;
30380;SDS011;17169;50.966;11.038;2023-01-08T14:18:31;2.63;;;1.33;;
30380;SDS011;17169;50.966;11.038;2023-01-08T14:21:33;1.35;;;0.90;;
30380;SDS011;17169;50.966;11.038;2023-01-08T14:24:36;1.92;;;1.10;;
30380;SDS011;17169;50.966;11.038;2023-01-08T14:27:38;2.42;;;1.25;;
30380;SDS011;17169;50.966;11.038;2023-01-08T14:30:46;2.45;;;1.15;;
30380;SDS011;17169;50.966;11.038;2023-01-08T14:33:50;1.67;;;1.10;;
30380;SDS011;17169;50.966;11.038;2023-01-08T14:36:54;2.05;;;1.20;;
30380;SDS011;17169;50.966;11.038;2023-01-08T14:39:57;5.43;;;1.45;;
30380;SDS011;17169;50.966;11.038;2023-01-08T14:43:05;5.57;;;1.60;;
30380;SDS011;17169;50.966;11.038;2023-01-08T14:46:11;3.38;;;1.70;;
30380;SDS011;17169;50.966;11.038;2023-01-08T14:49:23;2.60;;;1.55;;
30380;SDS011;17169;50.966;11.038;2023-01-08T14:52:28;4.20;;;1.05;;
30380;SDS011;17169;50.966;11.038;2023-01-08T14:55:30;1.77;;;1.10;;
30380;SDS011;17169;50.966;11.038;2023-01-08T14:58:36;1.55;;;1.00;;
30380;SDS011;17169;50.966;11.038;2023-01-08T15:01:41;1.27;;;0.98;;
30380;SDS011;17169;50.966;11.038;2023-01-08T15:04:44;4.43;;;2.35;;
30380;SDS011;17169;50.966;11.038;2023-01-08T15:07:54;1.52;;;1.20;;
30380;SDS011;17169;50.966;11.038;2023-01-08T15:11:00;2.22;;;1.27;;
30380;SDS011;17169;50.966;11.038;2023-01-08T15:14:11;2.20;;;1.35;;
30380;SDS011;17169;50.966;11.038;2023-01-08T15:17:15;2.72;;;1.45;;
30380;SDS011;17169;50.966;11.038;2023-01-08T15:20:23;3.28;;;1.50;;
30380;SDS011;17169;50.966;11.038;2023-01-08T15:23:33;2.70;;;1.52;;
30380;SDS011;17169;50.966;11.038;2023-01-08T15:26:40;5.35;;;1.50;;
30380;SDS011;17169;50.966;11.038;2023-01-08T15:29:45;3.20;;;1.70;;
30380;SDS011;17169;50.966;11.038;2023-01-08T15:32:49;3.00;;;1.40;;
30380;SDS011;17169;50.966;11.038;2023-01-08T15:35:53;4.32;;;1.70;;
30380;SDS011;17169;50.966;11.038;2023-01-08T15:38:55;4.13;;;1.70;;
30380;SDS011;17169;50.966;11.038;2023-01-08T15:41:59;4.70;;;2.05;;
30380;SDS011;17169;50.966;11.038;2023-01-08T15:45:20;4.15;;;2.25;;
30380;SDS011;17169;50.966;11.038;2023-01-08T15:48:23;3.97;;;2.03;;
30380;SDS011;17169;50.966;11.038;2023-01-08T15:51:28;2.55;;;1.52;;
30380;SDS011;17169;50.966;11.038;2023-01-08T15:54:33;3.75;;;1.83;;
30380;SDS011;17169;50.966;11.038;2023-01-08T15:57:35;5.65;;;2.00;;
30380;SDS011;17169;50.966;11.038;2023-01-08T16:00:38;7.70;;;3.13;;
30380;SDS011;17169;50.966;11.038;2023-01-08T16:03:41;13.27;;;6.20;;
30380;SDS011;17169;50.966;11.038;2023-01-08T16:06:45;5.38;;;2.47;;
30380;SDS011;17169;50.966;11.038;2023-01-08T16:09:50;5.00;;;2.50;;
30380;SDS011;17169;50.966;11.038;2023-01-08T16:12:53;4.43;;;2.15;;
30380;SDS011;17169;50.966;11.038;2023-01-08T16:15:55;5.13;;;2.63;;
30380;SDS011;17169;50.966;11.038;2023-01-08T16:18:58;5.75;;;1.60;;
30380;SDS011;17169;50.966;11.038;2023-01-08T16:22:01;3.53;;;1.40;;
30380;SDS011;17169;50.966;11.038;2023-01-08T16:25:04;4.10;;;1.60;;
30380;SDS011;17169;50.966;11.038;2023-01-08T16:28:08;4.20;;;1.90;;
30380;SDS011;17169;50.966;11.038;2023-01-08T16:31:11;2.92;;;1.50;;
30380;SDS011;17169;50.966;11.038;2023-01-08T16:34:14;2.72;;;1.35;;
30380;SDS011;17169;50.966;11.038;2023-01-08T16:37:18;1.95;;;1.23;;
30380;SDS011;17169;50.966;11.038;2023-01-08T16:40:20;2.22;;;1.38;;
30380;SDS011;17169;50.966;11.038;2023-01-08T16:43:23;2.47;;;1.27;;
30380;SDS011;17169;50.966;11.038;2023-01-08T16:46:26;3.22;;;1.67;;
30380;SDS011;17169;50.966;11.038;2023-01-08T16:49:29;9.20;;;2.85;;
30380;SDS011;17169;50.966;11.038;2023-01-08T16:52:34;4.72;;;2.15;;
30380;SDS011;17169;50.966;11.038;2023-01-08T16:55:38;3.55;;;1.60;;
30380;SDS011;17169;50.966;11.038;2023-01-08T16:58:41;2.67;;;1.38;;
30380;SDS011;17169;50.966;11.038;2023-01-08T17:01:43;2.67;;;1.48;;
30380;SDS011;17169;50.966;11.038;2023-01-08T17:04:45;2.08;;;1.35;;
30380;SDS011;17169;50.966;11.038;2023-01-08T17:07:50;4.60;;;1.45;;
30380;SDS011;17169;50.966;11.038;2023-01-08T17:10:53;1.50;;;0.90;;
30380;SDS011;17169;50.966;11.038;2023-01-08T17:13:55;2.50;;;1.30;;
30380;SDS011;17169;50.966;11.038;2023-01-08T17:16:58;2.97;;;1.10;;
30380;SDS011;17169;50.966;11.038;2023-01-08T17:20:02;1.65;;;1.00;;
30380;SDS011;17169;50.966;11.038;2023-01-08T17:23:06;2.47;;;1.08;;
30380;SDS011;17169;50.966;11.038;2023-01-08T17:26:09;2.28;;;1.20;;
30380;SDS011;17169;50.966;11.038;2023-01-08T17:29:13;1.60;;;1.05;;
30380;SDS011;17169;50.966;11.038;2023-01-08T17:32:16;2.05;;;1.30;;
30380;SDS011;17169;50.966;11.038;2023-01-08T17:35:18;4.30;;;1.25;;
30380;SDS011;17169;50.966;11.038;2023-01-08T17:38:22;2.90;;;1.60;;
30380;SDS011;17169;50.966;11.038;2023-01-08T17:41:24;4.90;;;2.38;;
30380;SDS011;17169;50.966;11.038;2023-01-08T17:44:44;3.33;;;1.63;;
30380;SDS011;17169;50.966;11.038;2023-01-08T17:47:46;5.10;;;2.10;;
30380;SDS011;17169;50.966;11.038;2023-01-08T17:50:48;2.58;;;1.60;;
30380;SDS011;17169;50.966;11.038;2023-01-08T17:53:52;3.60;;;1.60;;
30380;SDS011;17169;50.966;11.038;2023-01-08T17:56:56;4.20;;;1.45;;
30380;SDS011;17169;50.966;11.038;2023-01-08T17:59:58;4.63;;;1.65;;
30380;SDS011;17169;50.966;11.038;2023-01-08T18:03:01;2.97;;;1.58;;
30380;SDS011;17169;50.966;11.038;2023-01-08T18:06:06;4.22;;;1.70;;
30380;SDS011;17169;50.966;11.038;2023-01-08T18:09:11;3.15;;;1.52;;
30380;SDS011;17169;50.966;11.038;2023-01-08T18:12:14;5.75;;;1.90;;
30380;SDS011;17169;50.966;11.038;2023-01-08T18:15:16;6.47;;;2.55;;
30380;SDS011;17169;50.966;11.038;2023-01-08T18:18:19;3.97;;;2.33;;